Time;durP1;ratioP1;P1;durP2;ratioP2;P2;SDS_P1;SDS_P2;PMS_P1;PMS_P2;Temp;Humidity;BMP_temperature;BMP_pressure;BME280_temperature;BME280_humidity;BME280_pressure;Samples;Min_cycle;Max_cycle;Signal;HPM_P1;HPM_P2
2021/01/03 00:02:02;;;;;;;61.23;33.90;;;;;;;0.98;67.10;96734.45;1748338;80;21084;-51
2021/01/03 00:04:30;;;;;;;60.00;34.95;;;;;;;0.97;67.05;96728.94;1758083;81;21064;-49
2021/01/03 00:07:00;;;;;;;60.85;33.38;;;;;;;0.94;67.12;96727.33;1754680;81;21077;-52
2021/01/03 00:09:28;;;;;;;53.02;31.87;;;;;;;0.93;67.24;96725.64;1747679;80;21109;-52
2021/01/03 00:11:57;;;;;;;57.67;33.70;;;;;;;0.93;67.24;96725.64;1747966;81;21830;-50
2021/01/03 00:14:30;;;;;;;64.25;32.73;;;;;;;0.89;67.30;96734.30;1752185;81;21239;-51
2021/01/03 00:16:58;;;;;;;55.63;31.60;;;;;;;0.89;67.30;96734.30;1758905;80;21171;-51
2021/01/03 00:19:27;;;;;;;63.58;33.88;;;;;;;0.92;67.08;96731.62;1720198;81;21132;-51
2021/01/03 00:21:55;;;;;;;60.80;33.00;;;;;;;0.89;66.92;96730.01;1746279;81;21132;-49
2021/01/03 00:24:23;;;;;;;56.65;33.25;;;;;;;0.85;66.95;96729.69;1757471;81;21557;-50
2021/01/03 00:26:52;;;;;;;54.50;32.70;;;;;;;0.86;66.68;96733.92;1697879;82;21153;-51
2021/01/03 00:29:21;;;;;;;58.05;32.42;;;;;;;0.86;66.57;96737.77;1751488;81;21049;-51
2021/01/03 00:31:50;;;;;;;62.30;34.65;;;;;;;0.86;66.67;96740.77;1740881;80;21113;-50
2021/01/03 00:34:19;;;;;;;64.40;33.35;;;;;;;0.86;66.67;96740.77;1743291;81;21155;-50
2021/01/03 00:36:47;;;;;;;60.83;33.10;;;;;;;0.91;66.41;96735.91;1760431;80;21376;-50
2021/01/03 00:39:15;;;;;;;61.05;32.70;;;;;;;0.94;66.30;96732.85;1755723;81;21176;-51
2021/01/03 00:41:49;;;;;;;63.55;31.75;;;;;;;0.99;66.19;96734.41;1751935;81;21192;-51
2021/01/03 00:44:19;;;;;;;70.75;31.73;;;;;;;1.03;66.01;96738.98;1746942;80;21143;-52
2021/01/03 00:46:48;;;;;;;60.28;32.98;;;;;;;1.00;65.48;96733.50;1702273;82;21610;-50
2021/01/03 00:49:15;;;;;;;55.73;31.57;;;;;;;0.95;65.67;96735.36;1747441;81;21840;-49
2021/01/03 00:51:44;;;;;;;50.40;29.75;;;;;;;0.88;65.86;96735.98;1745799;81;27401;-51
2021/01/03 00:54:12;;;;;;;80.32;30.62;;;;;;;0.84;65.67;96733.56;1752567;81;21593;-51
2021/01/03 00:56:40;;;;;;;48.90;29.57;;;;;;;0.76;66.00;96738.06;1756512;81;21180;-50
2021/01/03 00:59:08;;;;;;;57.67;30.15;;;;;;;0.70;66.19;96735.26;1751036;80;21121;-49
2021/01/03 01:01:36;;;;;;;49.83;29.48;;;;;;;0.72;66.66;96718.16;1788362;78;21394;-51
2021/01/03 01:04:04;;;;;;;62.10;30.00;;;;;;;0.72;66.66;96718.16;1781229;78;21146;-50
2021/01/03 01:06:33;;;;;;;59.20;31.55;;;;;;;0.75;66.57;96727.02;1793276;78;27404;-50
2021/01/03 01:09:00;;;;;;;62.90;31.68;;;;;;;0.78;66.39;96732.04;1791289;78;21103;-50
2021/01/03 01:11:29;;;;;;;60.67;33.08;;;;;;;0.83;66.02;96733.19;1794689;78;21143;-51
2021/01/03 01:13:56;;;;;;;56.18;32.38;;;;;;;0.84;65.86;96725.48;1737626;80;21447;-51
2021/01/03 01:16:24;;;;;;;59.85;32.10;;;;;;;0.81;65.76;96722.19;1788635;78;21466;-51
2021/01/03 01:18:53;;;;;;;;;;;;;;;0.81;65.92;96723.02;1752523;81;21057;-50
2021/01/03 01:21:21;;;;;;;56.37;31.07;;;;;;;0.87;65.47;96718.15;1758626;80;20574;-50
2021/01/03 01:23:48;;;;;;;56.77;31.67;;;;;;;0.88;65.66;96721.11;1755032;80;21112;-50
2021/01/03 01:26:16;;;;;;;56.42;32.35;;;;;;;0.88;65.66;96721.11;1786030;78;21632;-51
2021/01/03 01:28:44;;;;;;;53.55;31.77;;;;;;;0.92;65.88;96720.12;1783908;78;21131;-51
2021/01/03 01:31:12;;;;;;;58.87;32.60;;;;;;;0.92;65.88;96720.12;1723155;80;21127;-51
2021/01/03 01:33:40;;;;;;;52.60;29.20;;;;;;;0.98;65.61;96722.95;1790883;78;21115;-51
2021/01/03 01:36:09;;;;;;;65.20;31.63;;;;;;;0.99;65.08;96725.46;1795729;78;21139;-50
2021/01/03 01:38:37;;;;;;;51.53;31.75;;;;;;;0.78;64.73;96723.10;1726229;80;22215;-50
2021/01/03 01:41:05;;;;;;;62.55;33.00;;;;;;;0.63;65.36;96719.73;1791121;78;21155;-50
2021/01/03 01:43:32;;;;;;;61.83;31.93;;;;;;;0.57;65.59;96722.00;1725654;80;21156;-50
2021/01/03 01:46:00;;;;;;;68.10;32.15;;;;;;;0.57;65.64;96719.90;1788074;78;21087;-50
2021/01/03 01:48:34;;;;;;;64.40;31.12;;;;;;;0.53;65.76;96721.26;1766015;78;21142;-50
2021/01/03 01:51:15;;;;;;;68.57;32.23;;;;;;;0.51;65.84;96717.06;1783831;78;21376;-51
2021/01/03 01:54:07;;;;;;;51.40;28.87;;;;;;;0.31;66.34;96722.73;1790001;78;21623;-50
2021/01/03 01:56:58;;;;;;;53.20;30.70;;;;;;;0.31;66.34;96722.73;1794977;78;21175;-52
2021/01/03 02:00:02;;;;;;;51.83;30.70;;;;;;;0.18;66.49;96723.50;1782795;78;21542;-50
2021/01/03 02:02:46;;;;;;;58.30;29.65;;;;;;;0.22;67.52;96720.45;1757686;78;21143;-50
2021/01/03 02:05:20;;;;;;;57.58;30.95;;;;;;;0.22;67.52;96720.45;1792171;78;21215;-51
2021/01/03 02:08:11;;;;;;;81.72;42.25;;;;;;;0.29;67.60;96715.12;1787840;78;21212;-50
2021/01/03 02:10:43;;;;;;;62.30;29.27;;;;;;;0.40;67.67;96708.90;1789422;78;21198;-49
2021/01/03 02:13:31;;;;;;;71.30;31.95;;;;;;;0.43;67.59;96708.37;1792965;78;21051;-50
2021/01/03 02:16:06;;;;;;;57.33;32.03;;;;;;;0.42;67.35;96719.89;1786413;78;21948;-51
2021/01/03 02:18:33;;;;;;;65.95;32.63;;;;;;;0.32;67.73;96716.77;1764980;79;21753;-53
2021/01/03 02:21:34;;;;;;;70.03;32.90;;;;;;;0.38;67.82;96715.73;1795261;78;21504;-50
2021/01/03 02:24:41;;;;;;;55.17;31.27;;;;;;;0.45;67.68;96714.70;1792800;78;21167;-50
2021/01/03 02:27:23;;;;;;;76.42;31.77;;;;;;;0.48;67.70;96714.17;1796493;78;21187;-51
2021/01/03 02:29:51;;;;;;;64.82;33.13;;;;;;;0.53;67.40;96705.94;1783210;78;21039;-50
2021/01/03 02:32:20;;;;;;;54.70;31.45;;;;;;;0.58;67.48;96713.92;1767218;78;21365;-50
2021/01/03 02:34:48;;;;;;;62.80;31.30;;;;;;;0.57;67.36;96716.06;1743448;79;21548;-50
2021/01/03 02:37:44;;;;;;;64.60;30.08;;;;;;;0.42;67.33;96715.62;1736327;80;21139;-51
2021/01/03 02:40:20;;;;;;;52.48;30.88;;;;;;;0.28;67.48;96710.91;1793109;78;21043;-50
2021/01/03 02:42:47;;;;;;;59.27;29.27;;;;;;;0.04;68.03;96712.41;1798569;78;21097;-50
2021/01/03 02:45:20;;;;;;;79.40;28.83;;;;;;;-0.05;68.43;96716.05;1785484;78;21180;-51
2021/01/03 02:47:49;;;;;;;55.12;28.40;;;;;;;0.05;68.60;96692.82;1784216;78;21179;-51
2021/01/03 02:50:20;;;;;;;;;;;;;;;0.05;68.60;96692.82;1797647;78;21540;-50
2021/01/03 02:52:48;;;;;;;49.77;29.82;;;;;;;0.05;68.19;96694.95;1788664;78;20753;-50
2021/01/03 02:55:18;;;;;;;53.25;28.47;;;;;;;0.05;68.52;96697.92;1791820;78;21640;-51
2021/01/03 02:57:48;;;;;;;50.17;26.42;;;;;;;0.16;68.69;96706.13;1801448;78;22144;-51
2021/01/03 03:00:25;;;;;;;57.75;28.23;;;;;;;0.20;68.25;96700.49;1771008;78;21232;-52
2021/01/03 03:02:57;;;;;;;56.80;28.80;;;;;;;0.12;68.08;96686.69;1781391;78;21064;-51
2021/01/03 03:05:24;;;;;;;52.13;29.18;;;;;;;0.09;68.78;96688.05;1797818;78;21044;-51
2021/01/03 03:07:52;;;;;;;52.40;26.82;;;;;;;0.16;68.61;96685.30;1791653;78;21131;-51
2021/01/03 03:10:20;;;;;;;52.23;28.80;;;;;;;0.18;68.28;96678.84;1794371;78;22365;-51
2021/01/03 03:12:51;;;;;;;52.63;27.30;;;;;;;0.06;68.27;96690.23;1789849;78;21126;-50
2021/01/03 03:15:20;;;;;;;45.30;26.02;;;;;;;0.04;68.69;96678.41;1785523;78;21227;-50
2021/01/03 03:17:48;;;;;;;54.60;27.82;;;;;;;0.12;68.58;96682.41;1798662;78;21109;-51
2021/01/03 03:20:17;;;;;;;52.10;28.53;;;;;;;0.11;68.43;96682.45;1718654;81;21544;-53
2021/01/03 03:22:46;;;;;;;53.00;28.20;;;;;;;0.08;68.61;96681.27;1726554;81;21363;-50
2021/01/03 03:25:14;;;;;;;52.43;27.95;;;;;;;0.11;68.70;96679.45;1791936;78;21082;-50
2021/01/03 03:27:42;;;;;;;53.10;25.32;;;;;;;0.16;68.38;96671.68;1785672;77;21169;-50
2021/01/03 03:30:14;;;;;;;47.60;28.40;;;;;;;0.16;68.38;96671.68;1781447;78;22156;-51
2021/01/03 03:32:41;;;;;;;53.75;28.23;;;;;;;0.09;68.42;96686.32;1785415;79;21097;-51
2021/01/03 03:35:12;;;;;;;48.58;25.85;;;;;;;0.07;68.86;96682.16;1791555;78;21317;-50
2021/01/03 03:37:39;;;;;;;49.08;27.30;;;;;;;0.11;68.64;96667.15;1717215;80;21088;-50
2021/01/03 03:40:10;;;;;;;47.80;26.93;;;;;;;0.09;68.79;96666.36;1780138;78;21121;-50
2021/01/03 03:42:38;;;;;;;42.95;25.70;;;;;;;0.14;68.67;96668.34;1712660;80;21179;-50
2021/01/03 03:45:07;;;;;;;54.73;28.90;;;;;;;0.14;68.67;96668.34;1786131;78;21107;-50
2021/01/03 03:47:34;;;;;;;47.35;26.62;;;;;;;0.18;68.87;96674.59;1790277;78;22308;-50
2021/01/03 03:50:05;;;;;;;45.55;26.82;;;;;;;0.22;68.70;96677.07;1785713;78;21114;-50
2021/01/03 03:52:33;;;;;;;52.58;26.90;;;;;;;0.27;68.54;96680.33;1792714;77;21202;-51
2021/01/03 03:55:02;;;;;;;53.17;27.65;;;;;;;0.27;68.54;96680.33;1780830;78;21123;-49
2021/01/03 03:57:29;;;;;;;45.23;26.82;;;;;;;0.36;68.49;96676.22;1783710;78;21089;-52
2021/01/03 03:59:58;;;;;;;47.78;26.35;;;;;;;0.36;67.91;96675.80;1793898;78;21374;-51
2021/01/03 04:02:25;;;;;;;57.40;26.40;;;;;;;0.28;68.09;96674.32;1766574;78;21164;-50
2021/01/03 04:04:53;;;;;;;59.03;24.57;;;;;;;0.28;68.16;96680.70;1786493;78;21095;-50
2021/01/03 04:07:20;;;;;;;54.88;27.10;;;;;;;0.28;68.05;96677.73;1793755;78;21540;-51
2021/01/03 04:09:48;;;;;;;46.48;26.20;;;;;;;0.22;68.03;96680.45;1781680;78;21127;-51
2021/01/03 04:12:16;;;;;;;56.75;27.77;;;;;;;0.27;68.34;96686.25;1798234;78;21370;-52
2021/01/03 04:14:43;;;;;;;47.50;26.02;;;;;;;0.10;68.12;96684.59;1791439;78;21162;-49
2021/01/03 04:17:11;;;;;;;49.75;26.87;;;;;;;0.10;68.12;96684.59;1769265;79;21083;-50
2021/01/03 04:19:39;;;;;;;60.83;28.90;;;;;;;0.01;68.18;96682.31;1791158;78;21121;-50
2021/01/03 04:22:07;;;;;;;54.75;29.82;;;;;;;-0.02;68.32;96684.50;1797863;78;21571;-50
2021/01/03 04:24:35;;;;;;;48.90;28.52;;;;;;;0.03;68.54;96689.03;1790224;78;21387;-50
2021/01/03 04:27:06;;;;;;;54.00;28.85;;;;;;;0.03;68.54;96689.03;1789505;78;21147;-50
2021/01/03 04:29:33;;;;;;;63.50;27.10;;;;;;;0.10;68.29;96683.32;1800572;78;21072;-49
2021/01/03 04:32:08;;;;;;;55.70;29.92;;;;;;;0.14;67.86;96683.20;1786448;78;22063;-50
2021/01/03 04:34:37;;;;;;;57.10;27.45;;;;;;;0.14;67.83;96687.48;1792448;78;23020;-49
2021/01/03 04:37:05;;;;;;;50.38;29.25;;;;;;;0.14;67.83;96687.48;1787639;78;21425;-49
2021/01/03 04:39:33;;;;;;;51.33;29.07;;;;;;;0.14;67.70;96681.92;1785733;79;21087;-51
2021/01/03 04:42:16;;;;;;;64.53;29.02;;;;;;;0.14;67.65;96683.20;1793858;77;21048;-49
2021/01/03 04:44:48;;;;;;;51.05;29.67;;;;;;;0.14;67.73;96693.41;1726688;80;21061;-50
2021/01/03 04:47:26;;;;;;;52.10;30.37;;;;;;;0.10;67.49;96696.08;1786850;78;21126;-52
2021/01/03 04:50:24;;;;;;;57.78;30.92;;;;;;;0.00;67.44;96681.49;1780742;79;21377;-51
2021/01/03 04:53:07;;;;;;;53.00;31.25;;;;;;;-0.06;67.79;96685.48;1790176;78;21091;-51
2021/01/03 04:55:37;;;;;;;55.28;30.65;;;;;;;-0.02;67.54;96692.16;1740683;80;21240;-50
2021/01/03 04:58:32;;;;;;;47.35;28.67;;;;;;;-0.07;67.56;96685.89;1786852;78;21173;-50
2021/01/03 05:01:15;;;;;;;42.05;25.32;;;;;;;-0.09;67.50;96679.17;1792664;78;21047;-52
2021/01/03 05:03:57;;;;;;;55.00;26.80;;;;;;;-0.09;67.00;96684.28;1744975;80;21076;-51
2021/01/03 05:06:24;;;;;;;50.50;28.80;;;;;;;-0.47;67.23;96679.73;1732078;81;21160;-51
2021/01/03 05:08:58;;;;;;;48.98;28.47;;;;;;;-0.75;68.23;96679.14;1730062;82;21494;-51
2021/01/03 05:11:46;;;;;;;50.58;27.82;;;;;;;-0.68;68.63;96686.20;1786742;78;21114;-50
2021/01/03 05:14:32;;;;;;;48.92;27.37;;;;;;;-0.57;68.33;96691.42;1790182;78;21135;-51
2021/01/03 05:16:59;;;;;;;57.83;28.50;;;;;;;-0.50;68.08;96689.56;1785057;78;21400;-50
2021/01/03 05:19:27;;;;;;;53.08;29.00;;;;;;;-0.54;68.09;96679.47;1790906;78;21142;-50
2021/01/03 05:21:56;;;;;;;54.03;32.80;;;;;;;-0.57;67.96;96682.50;1794312;78;21664;-49
2021/01/03 05:24:25;;;;;;;;;;;;;;;-0.52;68.13;96677.75;1802551;78;21176;-49
2021/01/03 05:26:53;;;;;;;44.00;25.82;;;;;;;-0.43;67.99;96683.87;1796124;78;20209;-49
2021/01/03 05:29:25;;;;;;;45.92;27.05;;;;;;;-0.34;67.72;96673.45;1790091;78;21762;-49
2021/01/03 05:32:04;;;;;;;49.10;28.67;;;;;;;-0.30;67.28;96673.75;1853575;76;22686;-50
2021/01/03 05:34:38;;;;;;;47.58;27.52;;;;;;;-0.40;67.37;96676.97;1822084;77;21114;-49
2021/01/03 05:37:17;;;;;;;46.40;28.35;;;;;;;-0.35;67.52;96668.38;1824156;78;21468;-50
2021/01/03 05:39:45;;;;;;;47.90;28.45;;;;;;;-0.26;67.36;96667.70;1819988;78;21219;-51
2021/01/03 05:42:25;;;;;;;43.93;27.00;;;;;;;-0.20;66.88;96673.93;1822750;78;21162;-50
2021/01/03 05:45:25;;;;;;;46.30;27.75;;;;;;;-0.15;66.58;96670.41;1820127;76;21838;-50
2021/01/03 05:48:03;;;;;;;52.33;30.80;;;;;;;-0.14;66.31;96665.27;1823637;78;21148;-50
2021/01/03 05:50:36;;;;;;;61.65;33.88;;;;;;;-0.12;66.33;96672.43;1819079;77;21362;-51
2021/01/03 05:53:28;;;;;;;63.92;34.80;;;;;;;-0.10;66.63;96667.29;1831413;78;21129;-51
2021/01/03 05:56:03;;;;;;;253.15;143.68;;;;;;;0.05;67.23;96669.44;1795006;78;21202;-49
2021/01/03 05:58:45;;;;;;;63.33;36.53;;;;;;;0.05;67.23;96669.44;1800017;78;21113;-53
2021/01/03 06:01:25;;;;;;;55.23;32.30;;;;;;;0.05;66.62;96666.03;1801982;78;21091;-54
2021/01/03 06:04:15;;;;;;;53.20;30.72;;;;;;;-0.01;66.53;96672.16;1742475;80;21183;-53
2021/01/03 06:06:54;;;;;;;54.55;31.87;;;;;;;-0.05;66.42;96679.48;1736709;80;21603;-53
2021/01/03 06:09:33;;;;;;;53.02;30.02;;;;;;;-0.03;66.17;96675.19;1744018;80;21805;-54
2021/01/03 06:12:22;;;;;;;56.20;32.30;;;;;;;-0.16;66.10;96675.95;1748081;81;21128;-56
2021/01/03 06:14:59;;;;;;;55.73;32.38;;;;;;;-0.40;66.59;96676.14;1746933;80;21124;-53
2021/01/03 06:17:36;;;;;;;58.83;33.02;;;;;;;-0.52;67.11;96671.38;1751761;81;21379;-53
2021/01/03 06:20:10;;;;;;;54.53;31.82;;;;;;;-0.51;67.27;96671.75;1736736;81;21163;-56
2021/01/03 06:23:01;;;;;;;58.38;32.40;;;;;;;-0.44;67.14;96674.12;1747809;81;21160;-55
2021/01/03 06:25:49;;;;;;;53.58;31.57;;;;;;;-0.35;66.79;96669.66;1745243;80;21111;-55
2021/01/03 06:28:43;;;;;;;48.90;29.40;;;;;;;-0.26;66.39;96677.91;1750269;81;21157;-55
2021/01/03 06:31:46;;;;;;;55.48;32.38;;;;;;;-0.25;65.92;96677.46;1751107;81;21416;-56
2021/01/03 06:34:22;;;;;;;58.48;32.45;;;;;;;-0.25;65.75;96678.73;1753321;80;21651;-54
2021/01/03 06:37:07;;;;;;;60.95;34.30;;;;;;;-0.22;65.92;96678.21;1724343;81;21107;-55
2021/01/03 06:39:58;;;;;;;57.58;33.80;;;;;;;-0.16;65.56;96674.68;1754663;80;21124;-57
2021/01/03 06:43:00;;;;;;;59.73;34.10;;;;;;;-0.14;65.70;96659.34;1723129;81;21661;-57
2021/01/03 06:46:05;;;;;;;50.58;31.55;;;;;;;-0.02;65.57;96671.33;1736910;81;23622;-54
2021/01/03 06:49:12;;;;;;;45.38;27.77;;;;;;;0.22;64.76;96685.55;1742065;80;21115;-54
2021/01/03 06:51:57;;;;;;;40.52;26.33;;;;;;;0.16;62.88;96680.19;1738740;80;21493;-56
2021/01/03 06:54:45;;;;;;;36.90;23.22;;;;;;;0.16;62.88;96680.19;1740875;80;21132;-55
2021/01/03 06:57:26;;;;;;;;;;;;;;;0.14;62.84;96684.48;1749987;81;21120;-55
2021/01/03 07:00:20;;;;;;;41.08;25.12;;;;;;;0.07;63.09;96686.81;1742568;80;22240;-54
2021/01/03 07:02:57;;;;;;;34.13;22.87;;;;;;;0.27;62.85;96676.05;1735934;80;21096;-54
2021/01/03 07:05:24;;;;;;;36.88;24.15;;;;;;;0.50;62.02;96680.49;1742249;81;21148;-55
2021/01/03 07:08:01;;;;;;;121.22;70.32;;;;;;;0.50;62.02;96680.49;1745724;81;21174;-54
2021/01/03 07:10:42;;;;;;;70.95;43.58;;;;;;;0.68;61.93;96682.95;1736255;82;21064;-56
2021/01/03 07:13:31;;;;;;;42.90;26.90;;;;;;;0.90;61.86;96675.91;1732754;80;21395;-54
2021/01/03 07:16:00;;;;;;;;;;;;;;;1.18;61.34;96671.22;1740370;80;21077;-56
2021/01/03 07:18:51;;;;;;;47.30;28.45;;;;;;;1.53;60.90;96664.11;1736559;80;20533;-55
2021/01/03 07:21:29;;;;;;;45.43;28.98;;;;;;;1.90;60.02;96665.44;1746303;80;21161;-56
2021/01/03 07:24:23;;;;;;;41.20;26.93;;;;;;;2.18;59.42;96667.84;1738637;80;21163;-58
2021/01/03 07:27:19;;;;;;;61.42;39.92;;;;;;;2.50;58.71;96671.80;1741049;80;22289;-54
2021/01/03 07:30:07;;;;;;;40.40;26.95;;;;;;;3.13;58.13;96671.13;1724719;80;21114;-56
2021/01/03 07:32:45;;;;;;;37.67;26.20;;;;;;;3.98;56.44;96670.20;1754377;79;21149;-55
2021/01/03 07:35:24;;;;;;;49.25;30.23;;;;;;;4.89;54.61;96665.71;1738430;80;21656;-56
2021/01/03 07:38:14;;;;;;;53.00;31.57;;;;;;;5.92;52.51;96661.19;1751046;80;21091;-56
2021/01/03 07:41:00;;;;;;;54.98;33.02;;;;;;;6.87;50.53;96658.40;1744157;79;21757;-55
2021/01/03 07:43:27;;;;;;;53.17;33.30;;;;;;;7.56;48.47;96659.70;1761539;80;21155;-56
2021/01/03 07:45:55;;;;;;;47.98;31.87;;;;;;;8.07;46.82;96663.20;1753686;80;21144;-57
2021/01/03 07:48:39;;;;;;;49.65;33.05;;;;;;;8.40;45.52;96663.41;1750184;80;21111;-56
2021/01/03 07:51:11;;;;;;;48.85;33.10;;;;;;;8.66;45.20;96657.48;1745127;82;21084;-58
2021/01/03 07:53:39;;;;;;;45.12;32.80;;;;;;;9.01;44.17;96653.19;1745001;82;21377;-56
2021/01/03 07:56:24;;;;;;;244.32;137.88;;;;;;;9.35;43.56;96653.59;1762780;79;21062;-56
2021/01/03 07:58:58;;;;;;;63.48;44.73;;;;;;;9.69;43.86;96640.22;1759638;81;21540;-57
2021/01/03 08:01:46;;;;;;;43.02;31.23;;;;;;;10.13;43.01;96641.57;1758547;81;21166;-57
2021/01/03 08:04:27;;;;;;;44.48;29.80;;;;;;;10.54;41.54;96644.41;1727723;81;21176;-57
2021/01/03 08:07:11;;;;;;;40.78;29.85;;;;;;;11.10;40.24;96646.56;1759088;80;21272;-58
2021/01/03 08:09:40;;;;;;;39.27;29.18;;;;;;;11.57;39.46;96655.25;1757524;79;21499;-56
2021/01/03 08:12:27;;;;;;;38.63;29.30;;;;;;;12.11;38.87;96646.56;1756695;79;21072;-56
2021/01/03 08:15:04;;;;;;;40.80;30.90;;;;;;;12.52;37.87;96639.95;1738490;81;21146;-59
2021/01/03 08:17:39;;;;;;;40.03;28.67;;;;;;;12.52;37.34;96642.56;1756468;79;21053;-57
2021/01/03 08:20:19;;;;;;;37.78;27.45;;;;;;;11.98;37.55;96651.03;1756507;79;21339;-56
2021/01/03 08:22:47;;;;;;;38.65;28.15;;;;;;;11.17;38.36;96653.44;1765598;79;21148;-57
2021/01/03 08:25:24;;;;;;;35.95;27.32;;;;;;;10.35;39.47;96647.47;1761419;79;21175;-56
2021/01/03 08:28:21;;;;;;;35.75;27.07;;;;;;;9.58;40.58;96645.63;1877195;76;28113;-56
2021/01/03 08:30:50;;;;;;;40.33;27.35;;;;;;;8.90;41.79;96648.30;1782721;80;21149;-56
2021/01/03 08:33:38;;;;;;;359.70;247.22;;;;;;;8.30;43.51;96647.61;1802839;78;21431;-56
2021/01/03 08:36:23;;;;;;;63.50;44.63;;;;;;;7.95;44.70;96653.61;1784836;80;21193;-54
2021/01/03 08:38:57;;;;;;;46.58;32.80;;;;;;;7.57;45.13;96649.75;1775020;79;21179;-54
2021/01/03 08:41:27;;;;;;;45.12;31.80;;;;;;;7.13;45.90;96656.50;1782043;79;21617;-55
2021/01/03 08:43:59;;;;;;;46.58;31.70;;;;;;;6.87;46.65;96666.14;1779981;80;21057;-57
2021/01/03 08:46:30;;;;;;;44.58;31.23;;;;;;;6.65;47.30;96652.30;1779652;80;21381;-55
2021/01/03 08:49:03;;;;;;;47.30;31.37;;;;;;;6.37;47.77;96658.45;1781976;79;21155;-63
2021/01/03 08:51:31;;;;;;;55.15;33.35;;;;;;;6.13;48.35;96658.44;1780946;79;21149;-55
2021/01/03 08:54:03;;;;;;;57.08;35.52;;;;;;;5.88;49.14;96657.08;1772841;80;21132;-61
2021/01/03 08:56:47;;;;;;;53.75;33.53;;;;;;;5.65;49.65;96658.24;1751674;81;21238;-55
2021/01/03 08:59:16;;;;;;;61.95;38.02;;;;;;;5.48;50.18;96658.62;1752703;81;22291;-55
2021/01/03 09:01:44;;;;;;;58.65;35.85;;;;;;;5.32;50.71;96657.23;1747396;81;21108;-54
2021/01/03 09:04:16;;;;;;;66.77;38.70;;;;;;;5.14;51.30;96658.12;1743703;81;21086;-55
2021/01/03 09:06:45;;;;;;;62.98;37.42;;;;;;;5.00;51.96;96654.09;1737799;81;21092;-55
2021/01/03 09:09:19;;;;;;;50.10;33.05;;;;;;;4.85;52.41;96654.35;1743234;81;21510;-58
2021/01/03 09:11:57;;;;;;;52.80;31.95;;;;;;;4.68;52.83;96652.57;1748557;81;21381;-54
2021/01/03 09:14:37;;;;;;;;;;;;;;;4.55;53.22;96662.57;1748059;80;21171;-55
2021/01/03 09:17:12;;;;;;;46.98;29.92;;;;;;;4.51;53.79;96659.77;1745393;80;20218;-55
2021/01/03 09:20:23;;;;;;;49.80;30.40;;;;;;;4.43;53.91;96664.78;1776529;80;21141;-55
2021/01/03 09:22:53;;;;;;;46.65;29.75;;;;;;;4.34;54.28;96670.35;1758575;80;21498;-55
2021/01/03 09:25:25;;;;;;;50.50;29.77;;;;;;;4.18;54.59;96674.03;1769705;80;21373;-54
2021/01/03 09:27:56;;;;;;;48.35;30.45;;;;;;;4.04;55.03;96670.77;1747702;81;21081;-56
2021/01/03 09:30:28;;;;;;;43.17;28.73;;;;;;;3.94;55.42;96660.97;1740319;82;21081;-55
2021/01/03 09:33:16;;;;;;;42.67;28.30;;;;;;;3.89;55.81;96667.58;1744141;82;21167;-55
2021/01/03 09:36:05;;;;;;;47.60;28.92;;;;;;;3.81;56.07;96652.50;1731295;82;21551;-54
2021/01/03 09:38:45;;;;;;;48.87;29.80;;;;;;;3.71;56.47;96657.64;1767347;80;21343;-56
2021/01/03 09:41:44;;;;;;;50.78;30.85;;;;;;;3.57;56.96;96648.40;1751632;81;21061;-54
2021/01/03 09:44:32;;;;;;;53.48;30.45;;;;;;;3.48;57.50;96653.02;1742061;82;21074;-57
2021/01/03 09:47:13;;;;;;;51.40;32.00;;;;;;;3.43;57.75;96643.85;1657444;80;26171;-57
2021/01/03 09:49:48;;;;;;;52.20;31.07;;;;;;;3.41;58.03;96638.78;1768704;80;21057;-56
2021/01/03 09:52:33;;;;;;;57.10;33.98;;;;;;;3.33;58.16;96641.28;1771265;80;21371;-57
2021/01/03 09:55:23;;;;;;;56.60;34.25;;;;;;;3.22;58.68;96641.25;1752726;81;21144;-55
2021/01/03 09:58:07;;;;;;;59.38;35.45;;;;;;;3.19;59.12;96645.67;1722933;82;21065;-55
2021/01/03 10:00:57;;;;;;;64.32;38.85;;;;;;;3.25;59.15;96643.70;1742818;81;21073;-55
2021/01/03 10:03:39;;;;;;;56.02;32.93;;;;;;;3.29;59.51;96635.45;1771851;80;21172;-55
2021/01/03 10:06:21;;;;;;;59.20;34.73;;;;;;;3.35;58.97;96631.33;1773259;80;22121;-55
2021/01/03 10:08:49;;;;;;;51.77;32.33;;;;;;;3.35;59.06;96647.18;1741107;81;21160;-53
2021/01/03 10:11:31;;;;;;;53.40;32.73;;;;;;;3.37;59.06;96633.41;1757105;80;21216;-51
2021/01/03 10:14:02;;;;;;;53.75;31.20;;;;;;;3.46;58.99;96636.86;1749789;81;22078;-51
2021/01/03 10:16:30;;;;;;;57.67;32.73;;;;;;;3.58;58.85;96626.98;1746564;80;21126;-52
2021/01/03 10:18:58;;;;;;;58.25;32.28;;;;;;;3.78;58.80;96623.14;1754487;81;22189;-52
2021/01/03 10:21:35;;;;;;;57.90;31.27;;;;;;;4.07;58.40;96615.89;1729339;81;21192;-51
2021/01/03 10:24:23;;;;;;;45.08;28.10;;;;;;;4.29;57.72;96608.51;1734908;81;21104;-53
2021/01/03 10:27:13;;;;;;;39.70;25.70;;;;;;;4.42;57.38;96616.89;1759261;81;21156;-51
2021/01/03 10:29:41;;;;;;;45.58;27.67;;;;;;;4.55;57.08;96613.28;1759943;81;21118;-51
2021/01/03 10:32:08;;;;;;;42.90;26.60;;;;;;;4.64;56.81;96604.34;1754934;81;21521;-51
2021/01/03 10:34:35;;;;;;;39.65;24.92;;;;;;;4.83;56.72;96599.61;1751896;81;21136;-51
2021/01/03 10:37:05;;;;;;;44.65;26.68;;;;;;;5.07;56.17;96594.58;1758168;81;21578;-53
2021/01/03 10:39:32;;;;;;;43.30;27.22;;;;;;;5.14;56.16;96589.50;1755058;81;21195;-51
2021/01/03 10:42:04;;;;;;;47.75;26.97;;;;;;;5.18;56.46;96595.78;1753022;81;21187;-52
2021/01/03 10:44:31;;;;;;;39.10;24.65;;;;;;;5.23;56.04;96574.52;1756482;81;21520;-52
2021/01/03 10:46:58;;;;;;;39.85;24.25;;;;;;;4.99;56.70;96588.97;1755336;81;21144;-51
2021/01/03 10:49:26;;;;;;;46.65;25.92;;;;;;;4.98;57.40;96583.44;1748387;81;21197;-51
2021/01/03 10:51:54;;;;;;;53.23;25.75;;;;;;;5.05;57.26;96576.26;1763082;80;21062;-52
2021/01/03 10:54:25;;;;;;;50.95;26.68;;;;;;;5.02;57.30;96569.54;1758238;81;21155;-51
2021/01/03 10:56:56;;;;;;;43.63;24.02;;;;;;;4.83;57.58;96561.87;1758172;81;21388;-52
2021/01/03 10:59:25;;;;;;;55.00;26.12;;;;;;;4.58;58.08;96568.64;1741862;81;21089;-51
2021/01/03 11:01:53;;;;;;;42.60;24.65;;;;;;;4.37;58.67;96566.61;1755892;81;21136;-52
2021/01/03 11:04:23;;;;;;;47.15;26.25;;;;;;;4.17;59.23;96566.23;1770537;80;21613;-51
2021/01/03 11:06:53;;;;;;;58.05;26.30;;;;;;;4.00;59.85;96565.27;1751991;80;21506;-51
2021/01/03 11:09:26;;;;;;;43.80;26.00;;;;;;;3.89;60.20;96569.22;1749540;80;21380;-52
2021/01/03 11:12:03;;;;;;;46.30;27.13;;;;;;;3.79;60.73;96577.77;1754483;81;21576;-51
2021/01/03 11:14:30;;;;;;;42.83;26.07;;;;;;;3.73;61.19;96567.30;1736644;81;21196;-52
2021/01/03 11:16:58;;;;;;;38.70;25.25;;;;;;;3.77;61.56;96565.46;1755537;81;21212;-51
2021/01/03 11:19:28;;;;;;;40.87;25.30;;;;;;;3.83;61.64;96572.87;1750952;81;21601;-51
2021/01/03 11:22:00;;;;;;;46.60;26.45;;;;;;;3.92;61.63;96572.47;1747232;81;21562;-49
2021/01/03 11:24:28;;;;;;;40.48;24.82;;;;;;;4.10;61.59;96579.81;1748877;81;21125;-49
2021/01/03 11:26:55;;;;;;;37.48;24.12;;;;;;;4.19;61.51;96581.97;1754227;81;21128;-49
2021/01/03 11:29:25;;;;;;;39.15;25.10;;;;;;;4.17;61.19;96590.17;1745156;81;21053;-47
2021/01/03 11:31:58;;;;;;;49.08;24.18;;;;;;;4.14;61.40;96585.17;1758070;81;21533;-49
2021/01/03 11:34:32;;;;;;;40.05;24.10;;;;;;;4.10;61.50;96578.53;1753869;81;21386;-49
2021/01/03 11:37:07;;;;;;;48.75;25.57;;;;;;;4.03;61.58;96571.55;1747937;81;21145;-48
2021/01/03 11:39:35;;;;;;;38.35;24.18;;;;;;;3.90;62.25;96578.56;1748065;81;21061;-52
2021/01/03 11:42:10;;;;;;;42.17;25.70;;;;;;;3.87;62.50;96575.70;1748863;81;21132;-49
2021/01/03 11:44:42;;;;;;;41.80;26.12;;;;;;;3.78;62.64;96574.80;1742562;81;21189;-48
2021/01/03 11:47:13;;;;;;;43.95;25.92;;;;;;;3.66;63.21;96580.03;1754955;81;21340;-49
2021/01/03 11:49:41;;;;;;;46.48;26.42;;;;;;;3.63;63.45;96573.73;1748368;81;21713;-49
2021/01/03 11:52:10;;;;;;;45.50;25.05;;;;;;;3.57;63.71;96572.71;1749121;81;21167;-48
2021/01/03 11:54:38;;;;;;;49.20;26.30;;;;;;;3.44;64.14;96564.73;1740694;81;21169;-49
2021/01/03 11:57:06;;;;;;;43.70;25.33;;;;;;;3.40;64.36;96562.72;1750559;81;21178;-50
2021/01/03 11:59:34;;;;;;;60.97;25.70;;;;;;;3.38;64.59;96569.66;1717682;81;21607;-49
2021/01/03 12:02:06;;;;;;;44.88;23.27;;;;;;;3.39;64.89;96567.48;1749652;81;21216;-49